Peaster, Texas
Current Conditions -  °F | °C
As of 5:04 AM on Friday 19 Dec 2014 (Local Time) from KMWL Reporting Station
Haze Haze  
Wind Chill: 42°   Ceiling: Unl
Heat Index: 44°   Visibility: 4mi
Dew Point: 43°   Wind: 5mph
Humidity: 96%   Direction: 30°NNE
Pressure: 30.15"   Gusts: NA
Location:  32.87°N, 97.87°W
Report Text: KMWL 191104Z AUTO 03004KT 4SM BR SCT015 SCT120 07/06 A3015 RMK AO2 T00670061
Loading
Personal Weather Stations






























Interactive Weather Map New forecast layout! Learn more

10-Day Weather Forecast

Advertisements
Track Severe Weather on mobile